createdAt,value
2019-05-25T00:01:41.763Z,100645.68
2019-05-25T00:04:50.661Z,100646.61
2019-05-25T00:07:59.356Z,100642.31
2019-05-25T00:10:28.872Z,100640.16
2019-05-25T00:12:58.224Z,100636.18
2019-05-25T00:15:28.310Z,100637.37
2019-05-25T00:21:06.932Z,100632.24
2019-05-25T00:26:56.381Z,100628.77
2019-05-25T00:29:25.773Z,100629.08
2019-05-25T00:31:55.235Z,100628.16
2019-05-25T00:34:24.725Z,100627.50
2019-05-25T00:36:54.266Z,100617.84
2019-05-25T00:39:24.643Z,100620.09
2019-05-25T00:41:54.391Z,100614.84
2019-05-25T00:44:23.803Z,100621.70
2019-05-25T00:47:32.686Z,100615.30
2019-05-25T00:50:02.162Z,100617.54
2019-05-25T00:52:31.972Z,100614.53
2019-05-25T00:55:01.398Z,100611.17
2019-05-25T01:01:19.491Z,100610.31
2019-05-25T01:03:49.031Z,100605.42
2019-05-25T01:06:57.758Z,100604.38
2019-05-25T01:09:27.087Z,100612.94
2019-05-25T01:12:35.979Z,100604.41
2019-05-25T01:18:18.713Z,100607.69
2019-05-25T01:20:48.243Z,100604.03
2019-05-25T01:23:17.646Z,100606.27
2019-05-25T01:25:47.026Z,100602.25
2019-05-25T01:28:16.447Z,100599.82
2019-05-25T01:30:45.793Z,100618.27
2019-05-25T01:33:15.216Z,100604.11
2019-05-25T01:35:44.766Z,100598.70
2019-05-25T01:38:25.635Z,100596.08
2019-05-25T01:46:31.653Z,100600.20
2019-05-25T01:49:01.085Z,100604.45
2019-05-25T01:51:30.431Z,100598.19
2019-05-25T01:53:59.834Z,100598.38
2019-05-25T01:56:29.358Z,100601.39
2019-05-25T01:58:58.708Z,100600.00
2019-05-25T02:01:28.140Z,100595.12
2019-05-25T02:03:58.447Z,100590.53
2019-05-25T02:06:27.838Z,100596.06
2019-05-25T02:08:57.401Z,100591.66
2019-05-25T02:11:26.877Z,100592.05
2019-05-25T02:13:56.648Z,100592.42
2019-05-25T02:16:26.002Z,100592.13
2019-05-25T02:19:34.898Z,100592.89
2019-05-25T02:28:14.346Z,100579.56
2019-05-25T02:30:43.700Z,100576.70
2019-05-25T02:36:08.570Z,100575.11
2019-05-25T02:38:38.381Z,100568.24
2019-05-25T02:41:07.787Z,100578.36
2019-05-25T02:43:37.284Z,100579.59
2019-05-25T02:46:06.794Z,100575.11
2019-05-25T02:48:36.161Z,100577.52
2019-05-25T02:51:44.898Z,100574.62
2019-05-25T02:54:14.780Z,100577.05
2019-05-25T02:56:44.151Z,100582.87
2019-05-25T02:59:52.852Z,100581.95
2019-05-25T03:08:25.182Z,100574.56
2019-05-25T03:11:33.868Z,100568.45
2019-05-25T03:14:43.067Z,100564.05
2019-05-25T03:17:12.555Z,100565.15
2019-05-25T03:19:42.286Z,100563.65
2019-05-25T03:22:11.874Z,100567.78
2019-05-25T03:24:41.213Z,100566.56
2019-05-25T03:27:52.141Z,100567.06
2019-05-25T03:33:25.296Z,100557.70
2019-05-25T03:35:54.754Z,100552.26
2019-05-25T03:38:24.201Z,100548.20
2019-05-25T03:41:32.886Z,100550.66
2019-05-25T03:47:03.791Z,100551.12
2019-05-25T03:50:12.853Z,100544.02
2019-05-25T03:52:42.347Z,100553.97
2019-05-25T03:55:11.698Z,100545.42
2019-05-25T04:06:39.877Z,100544.04
2019-05-25T04:09:09.380Z,100536.92
2019-05-25T04:11:38.833Z,100535.48
2019-05-25T04:14:08.401Z,100538.32
2019-05-25T04:16:37.780Z,100532.97
2019-05-25T04:19:46.479Z,100534.08
2019-05-25T04:22:15.843Z,100540.39
2019-05-25T04:24:45.231Z,100532.77
2019-05-25T04:27:54.017Z,100535.31
2019-05-25T04:33:18.917Z,100538.57
2019-05-25T04:39:36.962Z,100535.78
2019-05-25T04:42:06.429Z,100531.45
2019-05-25T04:44:35.937Z,100532.39
2019-05-25T04:47:05.295Z,100534.56
2019-05-25T04:49:34.727Z,100536.25
2019-05-25T04:52:04.151Z,100525.66
2019-05-25T04:54:33.594Z,100522.73
2019-05-25T05:00:28.870Z,100519.73
2019-05-25T05:12:26.330Z,100504.09
2019-05-25T05:14:56.533Z,100505.66
2019-05-25T05:17:26.771Z,100502.77
2019-05-25T05:19:56.151Z,100502.39
2019-05-25T05:22:25.677Z,100504.09
2019-05-25T05:30:51.873Z,100500.12
2019-05-25T05:33:21.455Z,100492.16
2019-05-25T05:36:30.553Z,100494.66
2019-05-25T06:03:22.618Z,100494.13
2019-05-25T06:05:52.097Z,100497.23
2019-05-25T06:14:18.080Z,100497.23
2019-05-25T06:16:47.436Z,100497.59
2019-05-25T06:19:16.839Z,100493.75
2019-05-25T06:22:25.509Z,100493.52
2019-05-25T06:27:56.751Z,100497.91
2019-05-25T06:30:26.135Z,100490.13
2019-05-25T06:32:55.580Z,100492.27
2019-05-25T06:35:24.983Z,100486.12
2019-05-25T06:37:54.353Z,100490.26
2019-05-25T06:41:03.183Z,100480.23
2019-05-25T06:43:52.390Z,100483.20
2019-05-25T06:46:22.182Z,100483.53
2019-05-25T06:55:19.177Z,100478.04
2019-05-25T07:01:14.853Z,100473.94
2019-05-25T07:06:46.151Z,100476.12
2019-05-25T07:09:15.737Z,100476.78
2019-05-25T07:11:45.106Z,100477.69
2019-05-25T07:14:14.677Z,100478.25
2019-05-25T07:16:44.112Z,100475.86
2019-05-25T07:19:13.708Z,100466.27
2019-05-25T07:24:38.257Z,100464.63
2019-05-25T07:27:08.028Z,100464.16
2019-05-25T07:29:37.687Z,100460.11
2019-05-25T07:32:07.501Z,100457.67
2019-05-25T07:34:36.897Z,100462.84
2019-05-25T07:37:06.296Z,100458.98
2019-05-25T07:39:35.910Z,100461.89
2019-05-25T07:42:44.668Z,100456.91
2019-05-25T07:45:34.932Z,100463.73
2019-05-25T07:50:43.775Z,100463.02
2019-05-25T07:53:13.264Z,100462.27
2019-05-25T07:56:22.172Z,100459.12
2019-05-25T08:02:01.779Z,100458.70
2019-05-25T08:05:02.332Z,100456.06
2019-05-25T08:07:42.539Z,100452.44
2019-05-25T08:13:26.731Z,100447.86
2019-05-25T08:15:56.654Z,100448.69
2019-05-25T08:19:05.520Z,100445.23
2019-05-25T08:21:34.881Z,100453.30
2019-05-25T08:27:39.066Z,100440.77
2019-05-25T08:33:23.094Z,100447.40
2019-05-25T08:36:31.751Z,100446.54
2019-05-25T08:39:40.470Z,100446.41
2019-05-25T08:44:51.761Z,100450.45
2019-05-25T08:47:21.266Z,100445.45
2019-05-25T08:49:50.800Z,100442.98
2019-05-25T08:52:20.321Z,100439.50
2019-05-25T08:55:29.176Z,100442.41
2019-05-25T08:57:58.780Z,100444.59
2019-05-25T09:00:28.610Z,100442.03
2019-05-25T09:03:37.286Z,100447.58
2019-05-25T09:06:07.856Z,100442.30
2019-05-25T09:08:37.224Z,100448.48
2019-05-25T09:11:06.819Z,100448.90
2019-05-25T09:13:36.809Z,100447.46
2019-05-25T09:16:06.434Z,100447.66
2019-05-25T09:18:35.858Z,100445.02
2019-05-25T09:21:05.345Z,100446.31
2019-05-25T09:23:34.738Z,100441.88
2019-05-25T09:26:43.751Z,100444.41
2019-05-25T09:29:25.320Z,100445.16
2019-05-25T09:31:54.938Z,100445.70
2019-05-25T09:37:57.785Z,100442.28
2019-05-25T09:46:30.658Z,100436.09
2019-05-25T09:49:00.228Z,100430.93
2019-05-25T09:51:29.832Z,100427.76
2019-05-25T09:53:59.247Z,100424.58
2019-05-25T09:56:28.663Z,100422.22
2019-05-25T09:58:58.254Z,100423.06
2019-05-25T10:01:27.672Z,100418.57
2019-05-25T10:03:57.164Z,100427.34
2019-05-25T10:09:21.906Z,100426.03
2019-05-25T10:11:51.369Z,100416.94
2019-05-25T10:15:00.095Z,100417.52
2019-05-25T10:17:30.068Z,100417.52
2019-05-25T10:19:59.579Z,100420.92
2019-05-25T10:23:08.347Z,100415.64
2019-05-25T10:28:47.210Z,100398.93
2019-05-25T10:31:56.080Z,100405.16
2019-05-25T10:35:04.961Z,100402.78
2019-05-25T10:40:48.465Z,100406.45
2019-05-25T10:43:57.290Z,100401.28
2019-05-25T10:46:45.692Z,100398.89
2019-05-25T10:52:29.991Z,100396.95
2019-05-25T10:54:59.370Z,100396.03
2019-05-25T10:57:29.455Z,100408.06
2019-05-25T11:00:38.554Z,100389.78
2019-05-25T11:03:08.157Z,100399.15
2019-05-25T11:13:52.320Z,100388.35
2019-05-25T11:16:21.690Z,100380.28
2019-05-25T11:18:51.094Z,100379.77
2019-05-25T11:21:20.576Z,100373.25
2019-05-25T11:23:49.917Z,100376.34
2019-05-25T11:26:59.719Z,100373.55
2019-05-25T11:38:33.731Z,100378.60
2019-05-25T11:41:03.245Z,100380.22
2019-05-25T11:43:51.660Z,100373.75
2019-05-25T11:52:38.615Z,100377.09
2019-05-25T12:01:12.374Z,100372.63
2019-05-25T12:03:41.780Z,100372.61
2019-05-25T12:06:11.188Z,100370.45
2019-05-25T12:09:20.040Z,100368.48
2019-05-25T12:15:10.453Z,100359.96
2019-05-25T12:20:41.199Z,100358.70
2019-05-25T12:23:10.789Z,100355.64
2019-05-25T12:26:19.604Z,100358.42
2019-05-25T12:28:49.046Z,100353.05
2019-05-25T12:32:04.170Z,100342.34
2019-05-25T12:37:54.451Z,100342.18
2019-05-25T12:43:40.440Z,100339.63
2019-05-25T12:49:49.972Z,100341.00
2019-05-25T12:55:22.207Z,100349.02
2019-05-25T13:00:30.616Z,100337.62
2019-05-25T13:03:00.143Z,100346.98
2019-05-25T13:09:04.228Z,100340.30
2019-05-25T13:11:33.726Z,100340.17
2019-05-25T13:14:42.710Z,100337.73
2019-05-25T13:17:12.651Z,100322.33
2019-05-25T13:22:37.713Z,100322.40
2019-05-25T13:28:15.902Z,100321.57
2019-05-25T13:33:54.442Z,100314.76
2019-05-25T13:36:24.259Z,100311.94
2019-05-25T13:39:32.971Z,100310.34
2019-05-25T13:44:57.651Z,100306.58
2019-05-25T13:47:39.166Z,100302.62
2019-05-25T13:50:20.500Z,100305.73
2019-05-25T13:52:49.974Z,100311.26
2019-05-25T13:55:19.352Z,100305.33
2019-05-25T13:57:49.184Z,100308.30
2019-05-25T14:03:36.543Z,100310.41
2019-05-25T14:06:06.042Z,100304.41
2019-05-25T14:08:35.442Z,100299.67
2019-05-25T14:11:04.952Z,100300.28
2019-05-25T14:14:13.819Z,100303.69
2019-05-25T14:17:22.501Z,100299.83
2019-05-25T14:19:52.430Z,100302.56
2019-05-25T14:22:22.032Z,100304.69
2019-05-25T14:24:51.573Z,100302.05
2019-05-25T14:28:00.446Z,100302.89
2019-05-25T14:30:30.486Z,100300.45
2019-05-25T14:36:14.090Z,100295.88
2019-05-25T14:38:43.654Z,100294.86
2019-05-25T14:44:47.579Z,100292.68
2019-05-25T14:50:33.096Z,100288.84
2019-05-25T14:56:11.221Z,100291.86
2019-05-25T14:58:59.784Z,100287.27
2019-05-25T15:10:29.353Z,100285.20
2019-05-25T15:12:58.889Z,100280.84
2019-05-25T15:15:28.394Z,100285.55
2019-05-25T15:18:38.759Z,100279.83
2019-05-25T15:21:08.747Z,100283.10
2019-05-25T15:23:38.423Z,100286.59
2019-05-25T15:26:07.964Z,100289.32
2019-05-25T15:28:37.756Z,100283.20
2019-05-25T15:34:14.466Z,100280.08
2019-05-25T15:42:59.905Z,100276.59
2019-05-25T15:45:49.595Z,100274.06
2019-05-25T15:48:58.331Z,100269.73
2019-05-25T15:51:28.877Z,100270.73
2019-05-25T15:53:58.386Z,100273.48
2019-05-25T15:59:23.633Z,100271.45
2019-05-25T16:13:32.733Z,100263.28
2019-05-25T16:16:41.605Z,100260.16
2019-05-25T16:19:50.331Z,100257.16
2019-05-25T16:25:10.717Z,100253.67
2019-05-25T16:27:40.197Z,100250.32
2019-05-25T16:30:09.685Z,100247.54
2019-05-25T16:33:18.342Z,100242.27
2019-05-25T16:39:00.029Z,100243.09
2019-05-25T16:41:30.071Z,100236.25
2019-05-25T16:47:07.373Z,100237.94
2019-05-25T16:49:36.784Z,100233.14
2019-05-25T16:55:01.956Z,100234.47
2019-05-25T16:57:31.888Z,100240.94
2019-05-25T17:00:01.301Z,100240.09
2019-05-25T17:02:30.829Z,100236.62
2019-05-25T17:08:09.450Z,100230.17
2019-05-25T17:10:38.834Z,100224.53
2019-05-25T17:13:47.638Z,100226.25
2019-05-25T17:16:17.042Z,100224.67
2019-05-25T17:18:46.382Z,100224.52
2019-05-25T17:21:55.091Z,100218.77
2019-05-25T17:27:34.207Z,100209.75
2019-05-25T17:30:04.025Z,100211.64
2019-05-25T17:32:33.589Z,100205.30
2019-05-25T17:35:03.298Z,100204.83
2019-05-25T17:37:32.670Z,100206.73
2019-05-25T17:40:41.641Z,100207.00
2019-05-25T17:43:11.049Z,100207.00
2019-05-25T17:45:40.360Z,100205.72
2019-05-25T17:48:49.170Z,100203.78
2019-05-25T17:51:18.546Z,100201.50
2019-05-25T17:53:59.861Z,100200.55
2019-05-25T17:56:29.695Z,100199.09
2019-05-25T17:58:59.364Z,100197.18
2019-05-25T18:01:28.884Z,100191.42
2019-05-25T18:06:46.736Z,100189.52
2019-05-25T18:09:16.149Z,100186.14
2019-05-25T18:11:45.546Z,100182.55
2019-05-25T18:14:54.468Z,100183.50
2019-05-25T18:17:23.992Z,100185.52
2019-05-25T18:19:53.482Z,100186.25
2019-05-25T18:23:02.441Z,100186.58
2019-05-25T18:28:37.927Z,100188.37
2019-05-25T18:31:07.387Z,100181.05
2019-05-25T18:36:33.245Z,100179.03
2019-05-25T18:39:02.859Z,100175.44
2019-05-25T18:47:40.234Z,100170.41
2019-05-25T18:50:10.765Z,100171.73
2019-05-25T18:52:40.376Z,100163.31
2019-05-25T18:55:22.639Z,100067.42
2019-05-25T19:01:12.663Z,100168.84
2019-05-25T19:04:01.421Z,100160.56
2019-05-25T19:07:11.038Z,100157.07
2019-05-25T19:09:40.432Z,100163.98
2019-05-25T19:12:49.282Z,100169.25
2019-05-25T19:18:20.651Z,100164.28
2019-05-25T19:20:50.163Z,100161.29
2019-05-25T19:23:19.488Z,100166.23
2019-05-25T19:25:49.094Z,100154.38
2019-05-25T19:28:18.590Z,100162.87
2019-05-25T19:31:27.503Z,100154.27
2019-05-25T19:37:03.465Z,100157.39
2019-05-25T19:39:30.588Z,100153.06
2019-05-25T19:42:39.520Z,100154.74
2019-05-25T19:48:24.015Z,100153.95
2019-05-25T19:51:32.907Z,100151.09
2019-05-25T19:59:46.448Z,100155.13
2019-05-25T20:02:55.247Z,100152.25
2019-05-25T20:06:04.298Z,100146.88
2019-05-25T20:08:33.940Z,100153.08
2019-05-25T20:16:54.899Z,100146.70
2019-05-25T20:26:01.421Z,100146.80
2019-05-25T20:32:05.354Z,100148.84
2019-05-25T20:38:19.773Z,100142.05
2019-05-25T20:53:08.678Z,100142.56
2019-05-25T20:55:38.222Z,100132.27
2019-05-25T20:58:19.607Z,100130.84
2019-05-25T21:03:58.214Z,100134.55
2019-05-25T21:06:27.816Z,100134.66
2019-05-25T21:08:57.427Z,100132.39
2019-05-25T21:11:27.142Z,100127.12
2019-05-25T21:14:36.047Z,100126.27
2019-05-25T21:17:05.573Z,100122.00
2019-05-25T21:19:35.191Z,100125.82
2019-05-25T21:22:04.624Z,100125.23
2019-05-25T21:28:08.936Z,100117.20
2019-05-25T21:30:38.594Z,100118.53
2019-05-25T21:33:47.333Z,100114.68
2019-05-25T21:36:16.827Z,100118.73
2019-05-25T21:38:46.290Z,100113.58
2019-05-25T21:41:15.690Z,100107.08
2019-05-25T21:43:45.091Z,100109.98
2019-05-25T21:46:14.543Z,100101.86
2019-05-25T21:48:43.940Z,100105.34
2019-05-25T21:57:28.820Z,100102.70
2019-05-25T22:03:08.069Z,100094.16
2019-05-25T22:05:37.575Z,100093.20
2019-05-25T22:08:07.081Z,100090.67
2019-05-25T22:11:16.239Z,100087.45
2019-05-25T22:13:45.829Z,100083.72
2019-05-25T22:16:15.343Z,100080.45
2019-05-25T22:18:44.957Z,100077.02
2019-05-25T22:24:28.579Z,100070.76
2019-05-25T22:26:58.110Z,100073.16
2019-05-25T22:29:27.714Z,100071.11
2019-05-25T22:32:36.688Z,100069.53
2019-05-25T22:35:06.458Z,100066.90
2019-05-25T22:37:43.346Z,100060.08
2019-05-25T22:40:52.160Z,100059.24
2019-05-25T22:43:21.559Z,100055.19
2019-05-25T22:45:50.985Z,100052.08
2019-05-25T22:48:20.401Z,100048.13
2019-05-25T22:56:46.125Z,100041.86
2019-05-25T22:59:15.583Z,100040.79
2019-05-25T23:01:56.633Z,100043.42
2019-05-25T23:04:26.236Z,100041.73
2019-05-25T23:09:51.573Z,100032.37
2019-05-25T23:15:22.225Z,100036.09
2019-05-25T23:18:12.414Z,100029.72
2019-05-25T23:21:21.154Z,100035.45
2019-05-25T23:32:55.631Z,100020.18
2019-05-25T23:36:04.490Z,100016.41
2019-05-25T23:42:02.293Z,100013.02
2019-05-25T23:45:10.984Z,100013.59
2019-05-25T23:50:49.553Z,100005.20
2019-05-25T23:53:58.510Z,99998.36
2019-05-25T23:56:28.091Z,99992.39
2019-05-25T23:58:57.780Z,99998.34
